createdAt,value
2019-03-30T00:02:09.011Z,42.48
2019-03-30T00:04:37.518Z,43.00
2019-03-30T00:07:06.037Z,43.02
2019-03-30T00:09:34.489Z,43.60
2019-03-30T00:12:03.114Z,43.02
2019-03-30T00:14:31.589Z,41.60
2019-03-30T00:17:00.152Z,40.30
2019-03-30T00:19:34.711Z,40.63
2019-03-30T00:21:58.784Z,40.35
2019-03-30T00:24:27.237Z,38.38
2019-03-30T00:26:55.663Z,40.40
2019-03-30T00:29:24.111Z,41.88
2019-03-30T00:31:52.569Z,41.02
2019-03-30T00:34:21.097Z,43.80
2019-03-30T00:36:49.534Z,42.48
2019-03-30T00:39:17.966Z,42.50
2019-03-30T00:41:46.412Z,44.30
2019-03-30T00:44:14.918Z,44.05
2019-03-30T00:46:43.389Z,44.53
2019-03-30T00:49:11.838Z,44.03
2019-03-30T00:51:40.285Z,43.25
2019-03-30T00:54:08.730Z,41.13
2019-03-30T00:56:37.184Z,41.60
2019-03-30T00:59:05.653Z,41.30
2019-03-30T01:01:34.085Z,41.23
2019-03-30T01:04:02.523Z,42.15
2019-03-30T01:06:30.971Z,39.60
2019-03-30T01:08:59.409Z,41.00
2019-03-30T01:11:27.849Z,42.62
2019-03-30T01:13:56.294Z,41.60
2019-03-30T01:16:24.813Z,40.33
2019-03-30T01:18:53.281Z,41.20
2019-03-30T01:21:21.729Z,42.33
2019-03-30T01:23:50.162Z,42.13
2019-03-30T01:26:18.598Z,39.38
2019-03-30T01:28:47.201Z,40.83
2019-03-30T01:31:15.726Z,41.15
2019-03-30T01:33:44.187Z,40.88
2019-03-30T01:36:12.698Z,39.80
2019-03-30T01:38:41.134Z,39.38
2019-03-30T01:41:09.560Z,38.98
2019-03-30T01:43:38.001Z,38.55
2019-03-30T01:46:06.429Z,38.63
2019-03-30T01:48:34.873Z,39.20
2019-03-30T01:51:03.328Z,36.58
2019-03-30T01:53:31.770Z,37.28
2019-03-30T01:56:00.220Z,36.95
2019-03-30T01:58:28.642Z,36.73
2019-03-30T02:00:57.104Z,36.42
2019-03-30T02:03:25.513Z,37.08
2019-03-30T02:05:53.977Z,36.85
2019-03-30T02:08:22.430Z,37.08
2019-03-30T02:10:50.851Z,36.05
2019-03-30T02:13:19.317Z,34.65
2019-03-30T02:15:47.810Z,34.80
2019-03-30T02:18:16.286Z,38.48
2019-03-30T02:20:46.452Z,35.43
2019-03-30T02:23:15.143Z,38.63
2019-03-30T02:25:43.661Z,38.83
2019-03-30T02:28:12.228Z,39.35
2019-03-30T02:30:40.838Z,40.43
2019-03-30T02:33:09.545Z,41.28
2019-03-30T02:35:38.065Z,42.33
2019-03-30T02:38:06.518Z,42.38
2019-03-30T02:40:34.936Z,41.02
2019-03-30T02:43:03.377Z,42.65
2019-03-30T02:45:31.807Z,43.10
2019-03-30T02:48:00.234Z,45.05
2019-03-30T02:50:28.696Z,44.38
2019-03-30T02:52:57.196Z,42.90
2019-03-30T02:55:25.704Z,44.73
2019-03-30T02:57:54.153Z,43.78
2019-03-30T03:00:22.658Z,48.85
2019-03-30T03:02:51.122Z,47.80
2019-03-30T03:05:21.705Z,48.55
2019-03-30T03:07:50.131Z,49.23
2019-03-30T03:10:19.119Z,47.43
2019-03-30T03:12:47.632Z,49.27
2019-03-30T03:15:16.231Z,47.23
2019-03-30T03:17:44.747Z,45.85
2019-03-30T03:20:13.533Z,47.78
2019-03-30T03:22:41.973Z,49.70
2019-03-30T03:25:10.478Z,49.55
2019-03-30T03:27:38.939Z,47.60
2019-03-30T03:30:08.216Z,45.78
2019-03-30T03:32:36.683Z,46.65
2019-03-30T03:35:06.363Z,45.17
2019-03-30T03:37:44.622Z,47.98
2019-03-30T03:40:07.853Z,48.92
2019-03-30T03:42:36.309Z,50.25
2019-03-30T03:45:07.127Z,50.88
2019-03-30T03:47:35.653Z,49.55
2019-03-30T03:50:04.783Z,47.62
2019-03-30T03:52:33.401Z,47.43
2019-03-30T03:55:02.548Z,46.45
2019-03-30T03:57:33.871Z,46.42
2019-03-30T04:00:03.939Z,44.18
2019-03-30T04:02:35.797Z,47.70
2019-03-30T04:05:06.067Z,48.00
2019-03-30T04:07:36.728Z,48.63
2019-03-30T04:10:05.526Z,50.95
2019-03-30T04:12:36.775Z,50.78
2019-03-30T04:15:07.691Z,51.55
2019-03-30T04:17:36.375Z,52.90
2019-03-30T04:20:06.367Z,54.93
2019-03-30T04:22:34.790Z,49.20
2019-03-30T04:25:03.988Z,45.03
2019-03-30T04:27:32.507Z,48.13
2019-03-30T04:30:00.966Z,42.17
2019-03-30T04:32:29.406Z,44.95
2019-03-30T04:34:57.881Z,44.60
2019-03-30T04:37:26.369Z,43.45
2019-03-30T04:39:54.815Z,46.25
2019-03-30T04:42:23.259Z,45.73
2019-03-30T04:44:51.787Z,47.30
2019-03-30T04:47:20.238Z,48.35
2019-03-30T04:49:48.685Z,48.35
2019-03-30T04:52:17.114Z,47.25
2019-03-30T04:54:45.557Z,46.65
2019-03-30T04:57:14.006Z,47.25
2019-03-30T04:59:42.461Z,44.25
2019-03-30T05:02:10.878Z,43.58
2019-03-30T05:04:39.322Z,43.98
2019-03-30T05:07:07.770Z,43.20
2019-03-30T05:09:36.216Z,43.68
2019-03-30T05:12:04.681Z,47.00
2019-03-30T05:14:33.214Z,47.20
2019-03-30T05:17:01.717Z,52.08
2019-03-30T05:19:30.155Z,52.65
2019-03-30T05:22:11.405Z,49.60
2019-03-30T05:24:28.740Z,51.80
2019-03-30T05:26:58.477Z,50.52
2019-03-30T05:29:27.565Z,54.88
2019-03-30T05:31:56.013Z,50.92
2019-03-30T05:34:24.457Z,50.45
2019-03-30T05:36:52.884Z,51.48
2019-03-30T05:39:21.354Z,50.23
2019-03-30T05:41:49.837Z,48.95
2019-03-30T05:44:18.297Z,48.92
2019-03-30T05:46:46.738Z,50.48
2019-03-30T05:49:15.197Z,49.33
2019-03-30T05:51:43.610Z,53.48
2019-03-30T05:54:12.057Z,53.20
2019-03-30T05:56:40.512Z,54.60
2019-03-30T05:59:08.957Z,57.27
2019-03-30T06:01:37.403Z,55.73
2019-03-30T06:04:05.926Z,55.65
2019-03-30T06:06:34.427Z,54.90
2019-03-30T06:09:03.058Z,55.85
2019-03-30T06:11:31.518Z,54.63
2019-03-30T06:13:59.956Z,55.85
2019-03-30T06:16:28.391Z,56.40
2019-03-30T06:18:56.818Z,56.48
2019-03-30T06:21:25.266Z,56.68
2019-03-30T06:23:53.782Z,55.92
2019-03-30T06:26:22.359Z,54.85
2019-03-30T06:28:50.827Z,57.62
2019-03-30T06:31:19.261Z,56.30
2019-03-30T06:33:47.706Z,57.30
2019-03-30T06:36:16.148Z,59.15
2019-03-30T06:38:44.649Z,57.65
2019-03-30T06:41:13.101Z,57.75
2019-03-30T06:43:41.523Z,55.70
2019-03-30T06:46:09.958Z,58.45
2019-03-30T06:48:38.398Z,56.77
2019-03-30T06:51:06.857Z,59.53
2019-03-30T06:53:35.375Z,57.38
2019-03-30T06:56:05.930Z,56.75
2019-03-30T06:58:34.366Z,57.65
2019-03-30T07:01:02.825Z,54.60
2019-03-30T07:03:31.281Z,56.13
2019-03-30T07:06:01.091Z,57.67
2019-03-30T07:08:32.461Z,55.73
2019-03-30T07:11:05.461Z,56.58
2019-03-30T07:13:36.097Z,54.83
2019-03-30T07:16:04.687Z,55.70
2019-03-30T07:18:34.184Z,54.15
2019-03-30T07:21:04.645Z,50.83
2019-03-30T07:23:33.081Z,54.95
2019-03-30T07:26:01.536Z,53.38
2019-03-30T07:28:30.009Z,54.33
2019-03-30T07:30:58.443Z,55.75
2019-03-30T07:33:26.873Z,50.15
2019-03-30T07:35:55.324Z,51.28
2019-03-30T07:38:23.765Z,49.38
2019-03-30T07:40:52.198Z,51.92
2019-03-30T07:43:20.685Z,49.25
2019-03-30T07:45:49.203Z,49.10
2019-03-30T07:48:17.639Z,49.38
2019-03-30T07:50:46.144Z,47.83
2019-03-30T07:53:26.341Z,48.05
2019-03-30T07:55:46.301Z,44.45
2019-03-30T07:58:14.721Z,45.17
2019-03-30T08:00:43.178Z,45.08
2019-03-30T08:03:11.610Z,44.63
2019-03-30T08:05:40.108Z,44.13
2019-03-30T08:08:14.305Z,44.83
2019-03-30T08:10:42.786Z,45.15
2019-03-30T08:13:11.303Z,44.53
2019-03-30T08:15:48.169Z,41.80
2019-03-30T08:18:16.682Z,42.78
2019-03-30T08:20:45.110Z,42.43
2019-03-30T08:23:13.568Z,41.10
2019-03-30T08:25:42.027Z,39.73
2019-03-30T08:28:10.681Z,37.83
2019-03-30T08:30:39.209Z,34.58
2019-03-30T08:33:07.734Z,33.55
2019-03-30T08:35:36.240Z,32.88
2019-03-30T08:38:04.757Z,34.05
2019-03-30T08:40:33.266Z,31.57
2019-03-30T08:43:01.718Z,30.92
2019-03-30T08:45:30.179Z,30.23
2019-03-30T08:47:58.707Z,32.30
2019-03-30T08:50:28.496Z,29.70
2019-03-30T08:52:56.921Z,27.77
2019-03-30T08:55:25.367Z,29.20
2019-03-30T08:57:53.820Z,28.02
2019-03-30T09:00:34.052Z,27.90
2019-03-30T09:03:02.496Z,27.02
2019-03-30T09:05:30.947Z,27.93
2019-03-30T09:07:59.421Z,27.82
2019-03-30T09:10:27.865Z,27.37
2019-03-30T09:12:56.338Z,27.22
2019-03-30T09:15:24.785Z,27.73
2019-03-30T09:17:53.214Z,27.67
2019-03-30T09:20:21.663Z,27.90
2019-03-30T09:22:50.179Z,28.40
2019-03-30T09:25:18.627Z,28.57
2019-03-30T09:27:47.172Z,28.10
2019-03-30T09:30:18.261Z,27.73
2019-03-30T09:32:46.840Z,29.50
2019-03-30T09:35:15.270Z,27.95
2019-03-30T09:37:43.715Z,28.87
2019-03-30T09:40:13.310Z,26.65
2019-03-30T09:42:41.756Z,27.22
2019-03-30T09:45:10.643Z,27.93
2019-03-30T09:47:39.086Z,28.15
2019-03-30T09:50:08.339Z,28.73
2019-03-30T09:52:36.811Z,28.77
2019-03-30T09:55:06.892Z,28.25
2019-03-30T09:57:35.349Z,28.70
2019-03-30T10:00:07.252Z,27.60
2019-03-30T10:02:35.766Z,28.70
2019-03-30T10:05:04.449Z,27.10
2019-03-30T10:07:32.894Z,27.40
2019-03-30T10:10:01.323Z,28.42
2019-03-30T10:12:29.775Z,27.52
2019-03-30T10:14:58.210Z,27.20
2019-03-30T10:17:26.713Z,29.85
2019-03-30T10:20:04.176Z,27.75
2019-03-30T10:22:27.027Z,27.58
2019-03-30T10:24:58.307Z,28.20
2019-03-30T10:27:25.629Z,28.20
2019-03-30T10:29:54.062Z,27.73
2019-03-30T10:32:22.598Z,28.73
2019-03-30T10:34:51.076Z,28.73
2019-03-30T10:37:19.586Z,28.45
2019-03-30T10:39:48.020Z,27.98
2019-03-30T10:42:16.454Z,27.77
2019-03-30T10:44:45.208Z,28.02
2019-03-30T10:47:13.634Z,27.93
2019-03-30T10:49:42.101Z,26.05
2019-03-30T10:52:10.616Z,27.80
2019-03-30T10:54:51.960Z,27.80
2019-03-30T10:57:09.291Z,26.60
2019-03-30T10:59:37.727Z,27.77
2019-03-30T11:02:07.706Z,28.77
2019-03-30T11:04:37.603Z,27.07
2019-03-30T11:07:07.268Z,30.20
2019-03-30T11:09:35.769Z,29.85
2019-03-30T11:12:05.376Z,30.30
2019-03-30T11:14:33.823Z,28.67
2019-03-30T11:17:02.273Z,29.12
2019-03-30T11:19:31.303Z,29.63
2019-03-30T11:22:02.988Z,28.17
2019-03-30T11:24:29.917Z,29.92
2019-03-30T11:26:58.371Z,29.50
2019-03-30T11:29:26.830Z,30.50
2019-03-30T11:31:55.276Z,28.38
2019-03-30T11:34:23.739Z,26.70
2019-03-30T11:36:52.312Z,28.15
2019-03-30T11:39:21.719Z,28.23
2019-03-30T11:41:50.223Z,28.40
2019-03-30T11:44:18.674Z,28.92
2019-03-30T11:46:47.102Z,29.82
2019-03-30T11:49:15.573Z,30.27
2019-03-30T11:51:44.015Z,30.15
2019-03-30T11:54:12.442Z,28.30
2019-03-30T11:56:40.895Z,29.55
2019-03-30T11:59:09.354Z,30.25
2019-03-30T12:01:37.800Z,29.37
2019-03-30T12:04:06.241Z,28.92
2019-03-30T12:06:34.689Z,29.30
2019-03-30T12:09:03.874Z,28.92
2019-03-30T12:11:32.336Z,29.18
2019-03-30T12:14:00.785Z,28.42
2019-03-30T12:16:29.217Z,28.23
2019-03-30T12:18:57.684Z,29.05
2019-03-30T12:21:26.162Z,26.97
2019-03-30T12:23:54.602Z,28.77
2019-03-30T12:26:23.125Z,28.07
2019-03-30T12:28:51.599Z,26.87
2019-03-30T12:31:20.049Z,26.52
2019-03-30T12:33:48.482Z,27.52
2019-03-30T12:36:16.941Z,27.02
2019-03-30T12:38:45.396Z,24.67
2019-03-30T12:41:13.835Z,24.52
2019-03-30T12:43:42.285Z,25.15
2019-03-30T12:46:10.763Z,25.45
2019-03-30T12:48:39.182Z,23.85
2019-03-30T12:51:07.632Z,22.70
2019-03-30T12:53:49.179Z,21.00
2019-03-30T12:56:08.833Z,21.50
2019-03-30T12:58:36.460Z,22.15
2019-03-30T13:01:04.973Z,21.45
2019-03-30T13:03:33.413Z,21.50
2019-03-30T13:06:01.872Z,20.08
2019-03-30T13:08:30.320Z,19.85
2019-03-30T13:10:59.867Z,20.88
2019-03-30T13:13:28.384Z,21.25
2019-03-30T13:15:56.833Z,20.65
2019-03-30T13:18:25.275Z,20.27
2019-03-30T13:20:53.738Z,21.73
2019-03-30T13:23:22.225Z,19.85
2019-03-30T13:26:02.867Z,21.30
2019-03-30T13:28:20.951Z,21.30
2019-03-30T13:30:49.489Z,21.75
2019-03-30T13:33:18.024Z,20.40
2019-03-30T13:35:49.629Z,21.10
2019-03-30T13:38:20.602Z,20.08
2019-03-30T13:40:48.250Z,18.67
2019-03-30T13:43:16.683Z,19.90
2019-03-30T13:45:45.151Z,18.92
2019-03-30T13:48:13.574Z,19.50
2019-03-30T13:50:42.033Z,18.85
2019-03-30T13:53:10.468Z,18.42
2019-03-30T13:55:38.904Z,17.98
2019-03-30T13:58:07.357Z,19.60
2019-03-30T14:00:35.847Z,20.72
2019-03-30T14:03:04.609Z,22.37
2019-03-30T14:05:33.075Z,19.70
2019-03-30T14:08:01.528Z,21.35
2019-03-30T14:10:29.958Z,21.10
2019-03-30T14:12:58.413Z,19.27
2019-03-30T14:15:26.868Z,20.40
2019-03-30T14:17:55.302Z,21.10
2019-03-30T14:20:23.751Z,20.70
2019-03-30T14:22:52.201Z,21.87
2019-03-30T14:25:20.635Z,22.17
2019-03-30T14:27:49.098Z,22.48
2019-03-30T14:30:17.925Z,22.85
2019-03-30T14:32:46.358Z,20.85
2019-03-30T14:35:14.789Z,22.35
2019-03-30T14:37:43.339Z,22.10
2019-03-30T14:40:12.119Z,20.68
2019-03-30T14:42:40.569Z,21.20
2019-03-30T14:45:10.676Z,20.80
2019-03-30T14:47:39.116Z,22.15
2019-03-30T14:50:08.959Z,20.62
2019-03-30T14:52:37.401Z,22.60
2019-03-30T14:55:08.046Z,21.07
2019-03-30T14:57:36.579Z,21.35
2019-03-30T15:00:08.686Z,21.37
2019-03-30T15:02:37.143Z,20.43
2019-03-30T15:05:08.261Z,20.68
2019-03-30T15:07:36.783Z,21.15
2019-03-30T15:10:09.267Z,20.12
2019-03-30T15:12:38.333Z,18.35
2019-03-30T15:15:10.905Z,20.48
2019-03-30T15:17:40.890Z,19.87
2019-03-30T15:20:10.658Z,19.87
2019-03-30T15:22:39.143Z,17.73
2019-03-30T15:25:09.403Z,19.07
2019-03-30T15:27:37.844Z,18.65
2019-03-30T15:30:07.741Z,19.10
2019-03-30T15:32:36.170Z,19.02
2019-03-30T15:35:06.932Z,17.87
2019-03-30T15:37:35.426Z,17.48
2019-03-30T15:40:05.235Z,18.12
2019-03-30T15:42:33.820Z,17.25
2019-03-30T15:45:02.253Z,17.92
2019-03-30T15:47:30.694Z,18.00
2019-03-30T15:49:59.228Z,17.20
2019-03-30T15:52:27.681Z,17.35
2019-03-30T15:54:56.123Z,17.62
2019-03-30T15:57:25.438Z,17.37
2019-03-30T15:59:54.066Z,17.57
2019-03-30T16:02:23.046Z,16.50
2019-03-30T16:04:51.585Z,17.35
2019-03-30T16:07:20.029Z,18.07
2019-03-30T16:09:48.454Z,19.05
2019-03-30T16:12:16.910Z,17.57
2019-03-30T16:14:45.357Z,17.67
2019-03-30T16:17:14.960Z,18.02
2019-03-30T16:19:43.728Z,17.80
2019-03-30T16:22:12.185Z,16.70
2019-03-30T16:24:40.651Z,16.37
2019-03-30T16:27:09.172Z,16.32
2019-03-30T16:29:37.652Z,15.98
2019-03-30T16:32:06.093Z,16.45
2019-03-30T16:34:34.548Z,15.40
2019-03-30T16:37:02.988Z,16.15
2019-03-30T16:39:34.585Z,16.10
2019-03-30T16:42:01.605Z,17.32
2019-03-30T16:44:30.046Z,16.60
2019-03-30T16:46:58.509Z,17.25
2019-03-30T16:49:26.942Z,18.82
2019-03-30T16:51:55.412Z,18.48
2019-03-30T16:54:24.240Z,18.10
2019-03-30T16:56:52.694Z,17.80
2019-03-30T16:59:21.118Z,18.52
2019-03-30T17:01:49.550Z,18.87
2019-03-30T17:04:18.021Z,17.92
2019-03-30T17:06:46.466Z,19.45
2019-03-30T17:09:14.894Z,22.67
2019-03-30T17:11:43.402Z,26.27
2019-03-30T17:14:11.848Z,29.90
2019-03-30T17:16:40.299Z,36.20
2019-03-30T17:19:08.765Z,39.92
2019-03-30T17:21:37.385Z,44.83
2019-03-30T17:24:05.969Z,46.30
2019-03-30T17:26:36.382Z,46.58
2019-03-30T17:29:04.978Z,44.05
2019-03-30T17:31:33.423Z,44.60
2019-03-30T17:34:01.868Z,43.42
2019-03-30T17:36:30.317Z,43.48
2019-03-30T17:38:58.774Z,46.00
2019-03-30T17:41:27.226Z,44.75
2019-03-30T17:43:55.919Z,45.80
2019-03-30T17:46:24.548Z,46.08
2019-03-30T17:48:53.061Z,44.03
2019-03-30T17:51:21.932Z,46.33
2019-03-30T17:53:50.589Z,46.53
2019-03-30T17:56:19.418Z,46.88
2019-03-30T17:58:49.415Z,46.15
2019-03-30T18:01:18.941Z,46.55
2019-03-30T18:03:47.444Z,48.52
2019-03-30T18:06:16.212Z,49.13
2019-03-30T18:08:45.240Z,52.38
2019-03-30T18:11:15.125Z,51.92
2019-03-30T18:13:46.106Z,51.60
2019-03-30T18:16:14.727Z,49.23
2019-03-30T18:18:43.733Z,51.85
2019-03-30T18:21:15.115Z,51.77
2019-03-30T18:23:47.344Z,56.88
2019-03-30T18:26:14.958Z,50.43
2019-03-30T18:28:44.815Z,52.73
2019-03-30T18:31:15.143Z,51.28
2019-03-30T18:33:44.921Z,51.75
2019-03-30T18:36:26.282Z,56.83
2019-03-30T18:39:09.419Z,56.33
2019-03-30T18:41:32.304Z,58.33
2019-03-30T18:44:02.374Z,57.58
2019-03-30T18:46:31.342Z,56.85
2019-03-30T18:48:59.943Z,57.90
2019-03-30T18:51:28.934Z,60.15
2019-03-30T18:53:57.485Z,56.13
2019-03-30T18:56:27.923Z,56.48
2019-03-30T18:58:56.307Z,54.25
2019-03-30T19:01:24.957Z,55.65
2019-03-30T19:03:53.507Z,57.70
2019-03-30T19:06:22.047Z,55.35
2019-03-30T19:08:50.756Z,54.50
2019-03-30T19:11:19.483Z,54.83
2019-03-30T19:13:56.209Z,56.85
2019-03-30T19:16:24.658Z,62.80
2019-03-30T19:18:53.095Z,54.95
2019-03-30T19:21:21.571Z,60.20
2019-03-30T19:23:49.998Z,56.28
2019-03-30T19:26:18.455Z,58.40
2019-03-30T19:28:56.034Z,63.33
2019-03-30T19:31:17.075Z,58.68
2019-03-30T19:33:45.600Z,60.60
2019-03-30T19:36:14.051Z,61.50
2019-03-30T19:38:42.500Z,60.05
2019-03-30T19:41:10.944Z,60.88
2019-03-30T19:43:39.481Z,60.73
2019-03-30T19:46:08.893Z,61.18
2019-03-30T19:48:37.417Z,61.13
2019-03-30T19:51:06.020Z,60.35
2019-03-30T19:53:34.483Z,57.73
2019-03-30T19:56:02.949Z,59.42
2019-03-30T19:58:31.464Z,61.00
2019-03-30T20:00:59.919Z,61.40
2019-03-30T20:03:28.346Z,60.90
2019-03-30T20:05:56.810Z,59.60
2019-03-30T20:08:25.323Z,61.45
2019-03-30T20:10:53.773Z,62.27
2019-03-30T20:13:22.220Z,60.67
2019-03-30T20:15:50.670Z,60.03
2019-03-30T20:18:19.136Z,60.25
2019-03-30T20:20:47.595Z,61.92
2019-03-30T20:23:16.105Z,62.95
2019-03-30T20:25:44.534Z,61.88
2019-03-30T20:28:12.996Z,62.62
2019-03-30T20:30:41.435Z,62.78
2019-03-30T20:33:09.926Z,60.50
2019-03-30T20:35:38.460Z,61.50
2019-03-30T20:38:06.907Z,59.38
2019-03-30T20:40:54.686Z,60.00
2019-03-30T20:43:23.137Z,58.65
2019-03-30T20:45:51.583Z,57.25
2019-03-30T20:48:20.098Z,61.83
2019-03-30T20:50:48.539Z,57.45
2019-03-30T20:53:17.020Z,58.25
2019-03-30T20:55:45.450Z,58.80
2019-03-30T20:58:13.886Z,57.93
2019-03-30T21:00:42.334Z,56.20
2019-03-30T21:03:10.808Z,61.95
2019-03-30T21:05:39.243Z,64.05
2019-03-30T21:08:07.677Z,58.78
2019-03-30T21:10:36.177Z,62.67
2019-03-30T21:13:04.675Z,64.15
2019-03-30T21:15:33.131Z,67.72
2019-03-30T21:18:01.565Z,63.95
2019-03-30T21:20:30.002Z,66.77
2019-03-30T21:22:58.448Z,68.78
2019-03-30T21:25:26.893Z,65.45
2019-03-30T21:27:55.344Z,66.90
2019-03-30T21:30:23.856Z,66.30
2019-03-30T21:32:52.304Z,67.85
2019-03-30T21:35:20.812Z,69.22
2019-03-30T21:37:49.269Z,71.22
2019-03-30T21:40:17.729Z,69.75
2019-03-30T21:42:46.172Z,67.25
2019-03-30T21:45:33.984Z,69.00
2019-03-30T21:48:02.477Z,70.47
2019-03-30T21:50:30.937Z,70.28
2019-03-30T21:52:59.381Z,72.55
2019-03-30T21:55:27.938Z,73.62
2019-03-30T21:57:56.449Z,69.80
2019-03-30T22:00:35.932Z,72.17
2019-03-30T22:03:05.386Z,69.90
2019-03-30T22:05:35.374Z,74.35
2019-03-30T22:08:05.180Z,74.90
2019-03-30T22:10:33.637Z,71.22
2019-03-30T22:13:02.166Z,74.70
2019-03-30T22:15:30.670Z,76.87
2019-03-30T22:17:59.111Z,72.50
2019-03-30T22:20:27.562Z,76.05
2019-03-30T22:22:56.004Z,72.15
2019-03-30T22:25:24.464Z,75.10
2019-03-30T22:27:52.980Z,77.27
2019-03-30T22:30:25.091Z,71.50
2019-03-30T22:32:51.710Z,74.67
2019-03-30T22:35:20.162Z,75.10
2019-03-30T22:37:48.582Z,73.52
2019-03-30T22:40:17.105Z,71.07
2019-03-30T22:42:45.561Z,75.55
2019-03-30T22:45:14.465Z,72.40
2019-03-30T22:47:42.922Z,71.80
2019-03-30T22:50:12.004Z,73.07
2019-03-30T22:52:40.467Z,75.03
2019-03-30T22:55:09.039Z,71.25
2019-03-30T22:57:37.477Z,75.57
2019-03-30T23:00:08.295Z,70.97
2019-03-30T23:02:56.062Z,70.47
2019-03-30T23:05:24.508Z,68.52
2019-03-30T23:07:52.969Z,59.70
2019-03-30T23:10:21.410Z,58.33
2019-03-30T23:12:49.861Z,57.85
2019-03-30T23:15:18.282Z,57.43
2019-03-30T23:17:46.738Z,55.20
2019-03-30T23:20:15.353Z,51.77
2019-03-30T23:22:43.864Z,52.30
2019-03-30T23:25:12.366Z,49.67
2019-03-30T23:27:40.799Z,45.48
2019-03-30T23:30:09.481Z,43.63
2019-03-30T23:32:37.895Z,43.20
2019-03-30T23:35:07.098Z,41.28
2019-03-30T23:37:35.594Z,38.45
2019-03-30T23:40:06.223Z,38.88
2019-03-30T23:42:34.650Z,36.30
2019-03-30T23:45:03.178Z,37.10
2019-03-30T23:47:31.617Z,34.95
2019-03-30T23:50:00.330Z,37.90
2019-03-30T23:52:28.834Z,38.78
2019-03-30T23:54:57.259Z,38.00
2019-03-30T23:57:25.713Z,38.28
2019-03-30T23:59:54.134Z,37.28
